createdAt,value
2019-03-31T00:00:29.512Z,36.67
2019-03-31T00:02:57.916Z,36.67
2019-03-31T00:05:26.328Z,36.67
2019-03-31T00:07:54.762Z,36.66
2019-03-31T00:10:23.229Z,36.64
2019-03-31T00:12:51.632Z,36.65
2019-03-31T00:15:20.068Z,36.66
2019-03-31T00:17:48.487Z,36.67
2019-03-31T00:20:16.908Z,36.66
2019-03-31T00:22:45.365Z,36.66
2019-03-31T00:25:13.860Z,36.64
2019-03-31T00:27:42.267Z,36.63
2019-03-31T00:30:10.972Z,36.63
2019-03-31T00:32:39.416Z,36.62
2019-03-31T00:35:08.004Z,36.61
2019-03-31T00:37:36.446Z,36.60
2019-03-31T00:40:06.507Z,36.58
2019-03-31T00:42:34.976Z,36.59
2019-03-31T00:45:04.077Z,36.60
2019-03-31T00:47:32.485Z,36.58
2019-03-31T00:50:00.928Z,36.59
2019-03-31T00:52:29.344Z,36.58
2019-03-31T00:54:57.788Z,36.57
2019-03-31T00:57:26.197Z,36.55
2019-03-31T00:59:54.640Z,36.55
2019-03-31T01:02:24.706Z,36.55
2019-03-31T01:07:23.548Z,36.50
2019-03-31T01:09:53.552Z,36.51
2019-03-31T01:12:23.765Z,36.51
2019-03-31T01:14:52.196Z,36.53
2019-03-31T01:17:20.636Z,36.50
2019-03-31T01:19:49.355Z,36.47
2019-03-31T01:22:17.788Z,36.50
2019-03-31T01:24:46.222Z,36.47
2019-03-31T01:27:14.651Z,36.45
2019-03-31T01:29:43.296Z,36.49
2019-03-31T01:32:12.038Z,36.43
2019-03-31T01:34:40.557Z,36.46
2019-03-31T01:37:10.273Z,36.44
2019-03-31T01:39:38.715Z,36.42
2019-03-31T01:42:07.789Z,36.47
2019-03-31T01:44:36.225Z,36.46
2019-03-31T01:47:05.467Z,36.41
2019-03-31T01:49:33.886Z,36.41
2019-03-31T01:52:02.330Z,36.44
2019-03-31T01:54:30.902Z,36.45
2019-03-31T01:56:59.327Z,36.41
2019-03-31T01:59:27.758Z,36.37
2019-03-31T02:02:03.988Z,36.41
2019-03-31T02:04:27.083Z,36.46
2019-03-31T02:06:55.513Z,36.41
2019-03-31T02:09:24.025Z,36.44
2019-03-31T02:11:52.452Z,36.42
2019-03-31T02:14:20.905Z,36.45
2019-03-31T02:16:49.353Z,36.45
2019-03-31T02:19:17.798Z,36.45
2019-03-31T02:21:46.225Z,36.46
2019-03-31T02:24:14.629Z,36.45
2019-03-31T02:26:43.088Z,36.38
2019-03-31T02:29:11.495Z,36.35
2019-03-31T02:31:39.916Z,36.40
2019-03-31T02:34:08.355Z,36.40
2019-03-31T02:36:36.794Z,36.34
2019-03-31T02:39:05.901Z,36.35
2019-03-31T02:41:34.535Z,36.39
2019-03-31T02:44:02.992Z,36.39
2019-03-31T02:46:31.383Z,36.38
2019-03-31T02:48:59.802Z,36.40
2019-03-31T02:51:28.413Z,36.33
2019-03-31T02:53:56.877Z,36.36
2019-03-31T02:56:26.349Z,36.36
2019-03-31T02:58:55.428Z,36.35
2019-03-31T03:01:26.074Z,36.38
2019-03-31T03:03:55.761Z,36.38
2019-03-31T03:06:25.715Z,36.41
2019-03-31T03:08:56.910Z,36.39
2019-03-31T03:11:26.659Z,36.35
2019-03-31T03:13:56.617Z,36.40
2019-03-31T03:16:25.023Z,36.34
2019-03-31T03:18:53.481Z,36.33
2019-03-31T03:21:24.559Z,36.35
2019-03-31T03:23:52.438Z,36.34
2019-03-31T03:26:20.955Z,36.35
2019-03-31T03:28:49.429Z,36.32
2019-03-31T03:31:17.933Z,36.36
2019-03-31T03:33:46.433Z,36.31
2019-03-31T03:36:15.429Z,36.32
2019-03-31T03:38:43.921Z,36.26
2019-03-31T03:41:12.362Z,36.28
2019-03-31T03:43:54.889Z,36.28
2019-03-31T03:46:11.085Z,36.33
2019-03-31T03:48:39.595Z,36.29
2019-03-31T03:51:08.055Z,36.31
2019-03-31T03:53:36.427Z,36.33
2019-03-31T03:56:04.924Z,36.33
2019-03-31T03:58:33.349Z,36.30
2019-03-31T04:01:02.201Z,36.36
2019-03-31T04:03:31.270Z,36.32
2019-03-31T04:05:59.825Z,36.30
2019-03-31T04:08:28.232Z,36.31
2019-03-31T04:11:08.489Z,36.26
2019-03-31T04:13:36.927Z,36.30
2019-03-31T04:16:05.343Z,36.30
2019-03-31T04:18:33.760Z,36.34
2019-03-31T04:21:02.207Z,36.35
2019-03-31T04:23:30.619Z,36.37
2019-03-31T04:25:59.061Z,36.36
2019-03-31T04:28:27.487Z,36.36
2019-03-31T04:30:55.919Z,36.37
2019-03-31T04:33:24.345Z,36.39
2019-03-31T04:35:52.783Z,36.41
2019-03-31T04:38:21.230Z,36.39
2019-03-31T04:40:49.663Z,36.41
2019-03-31T04:43:18.087Z,36.40
2019-03-31T04:45:46.509Z,36.40
2019-03-31T04:48:14.920Z,36.39
2019-03-31T04:50:43.686Z,36.37
2019-03-31T04:53:12.138Z,36.39
2019-03-31T04:55:40.537Z,36.38
2019-03-31T04:58:08.957Z,36.39
2019-03-31T05:00:37.391Z,36.40
2019-03-31T05:03:05.809Z,36.41
2019-03-31T05:05:34.241Z,36.41
2019-03-31T05:08:02.656Z,36.38
2019-03-31T05:10:31.093Z,36.38
2019-03-31T05:12:59.487Z,36.41
2019-03-31T05:15:27.953Z,36.38
2019-03-31T05:17:56.386Z,36.37
2019-03-31T05:20:24.815Z,36.35
2019-03-31T05:22:53.229Z,36.37
2019-03-31T05:25:21.649Z,36.36
2019-03-31T05:27:50.071Z,36.35
2019-03-31T05:30:18.489Z,36.35
2019-03-31T05:32:46.935Z,36.36
2019-03-31T05:35:15.353Z,36.36
2019-03-31T05:37:50.940Z,36.34
2019-03-31T05:40:14.177Z,36.33
2019-03-31T05:42:42.591Z,36.33
2019-03-31T05:45:11.150Z,36.32
2019-03-31T05:47:39.554Z,36.30
2019-03-31T05:50:08.335Z,36.28
2019-03-31T05:52:36.737Z,36.28
2019-03-31T05:55:06.614Z,36.28
2019-03-31T05:57:35.051Z,36.26
2019-03-31T06:00:05.029Z,36.22
2019-03-31T06:02:33.431Z,36.21
2019-03-31T06:05:01.850Z,36.17
2019-03-31T06:07:30.285Z,36.17
2019-03-31T06:09:58.700Z,36.14
2019-03-31T06:12:27.128Z,36.11
2019-03-31T06:14:55.531Z,36.02
2019-03-31T06:17:23.987Z,35.93
2019-03-31T06:19:52.388Z,35.83
2019-03-31T06:22:20.799Z,35.73
2019-03-31T06:24:49.218Z,35.73
2019-03-31T06:27:17.643Z,35.64
2019-03-31T06:29:46.044Z,35.58
2019-03-31T06:32:14.484Z,35.46
2019-03-31T06:34:47.664Z,35.38
2019-03-31T06:37:13.062Z,35.33
2019-03-31T06:39:41.469Z,35.25
2019-03-31T06:42:09.898Z,35.18
2019-03-31T06:44:38.395Z,35.12
2019-03-31T06:47:06.816Z,35.04
2019-03-31T06:49:35.229Z,34.94
2019-03-31T06:52:03.720Z,34.84
2019-03-31T06:54:32.156Z,34.70
2019-03-31T06:57:00.570Z,34.55
2019-03-31T06:59:29.008Z,34.43
2019-03-31T07:01:57.430Z,34.29
2019-03-31T07:04:25.865Z,34.13
2019-03-31T07:06:54.288Z,34.00
2019-03-31T07:09:22.720Z,33.88
2019-03-31T07:11:51.142Z,33.73
2019-03-31T07:14:19.564Z,33.62
2019-03-31T07:16:48.120Z,33.49
2019-03-31T07:19:16.534Z,33.36
2019-03-31T07:21:44.942Z,33.24
2019-03-31T07:24:13.464Z,33.13
2019-03-31T07:26:41.896Z,33.05
2019-03-31T07:29:10.412Z,32.92
2019-03-31T07:31:38.833Z,32.86
2019-03-31T07:34:07.233Z,32.78
2019-03-31T07:36:35.685Z,32.70
2019-03-31T07:39:06.107Z,32.60
2019-03-31T07:41:35.599Z,32.47
2019-03-31T07:44:03.975Z,32.36
2019-03-31T07:46:32.422Z,32.26
2019-03-31T07:49:00.830Z,32.18
2019-03-31T07:51:29.261Z,32.07
2019-03-31T07:53:57.716Z,32.01
2019-03-31T07:56:26.119Z,31.93
2019-03-31T07:58:54.555Z,31.87
2019-03-31T08:01:22.966Z,31.82
2019-03-31T08:03:51.380Z,31.76
2019-03-31T08:06:19.790Z,31.72
2019-03-31T08:08:48.207Z,31.68
2019-03-31T08:11:17.302Z,31.60
2019-03-31T08:13:45.758Z,31.57
2019-03-31T08:16:14.257Z,31.53
2019-03-31T08:18:42.676Z,31.46
2019-03-31T08:21:11.129Z,31.41
2019-03-31T08:23:39.553Z,31.32
2019-03-31T08:26:07.992Z,31.30
2019-03-31T08:28:36.408Z,31.22
2019-03-31T08:31:04.836Z,31.19
2019-03-31T08:33:33.301Z,31.09
2019-03-31T08:36:01.701Z,31.05
2019-03-31T08:38:30.138Z,30.96
2019-03-31T08:40:58.584Z,30.92
2019-03-31T08:43:27.022Z,30.80
2019-03-31T08:45:55.441Z,30.78
2019-03-31T08:48:23.877Z,30.65
2019-03-31T08:50:52.304Z,30.52
2019-03-31T08:53:20.715Z,30.44
2019-03-31T08:55:49.152Z,30.42
2019-03-31T08:58:17.589Z,30.35
2019-03-31T09:00:50.106Z,30.24
2019-03-31T09:03:18.498Z,30.14
2019-03-31T09:06:00.696Z,30.09
2019-03-31T09:08:17.057Z,30.04
2019-03-31T09:10:45.499Z,29.96
2019-03-31T09:13:13.929Z,29.93
2019-03-31T09:15:42.345Z,29.90
2019-03-31T09:18:10.807Z,29.84
2019-03-31T09:20:39.229Z,29.75
2019-03-31T09:23:07.665Z,29.74
2019-03-31T09:25:36.172Z,29.68
2019-03-31T09:28:04.620Z,29.60
2019-03-31T09:30:33.109Z,29.58
2019-03-31T09:33:01.519Z,29.51
2019-03-31T09:35:30.025Z,29.47
2019-03-31T09:37:58.449Z,29.41
2019-03-31T09:40:26.863Z,29.28
2019-03-31T09:42:55.313Z,29.24
2019-03-31T09:45:23.731Z,29.23
2019-03-31T09:47:52.161Z,29.14
2019-03-31T09:50:21.016Z,29.12
2019-03-31T09:52:49.449Z,29.12
2019-03-31T09:55:17.923Z,28.96
2019-03-31T09:57:46.371Z,28.87
2019-03-31T10:00:17.343Z,28.81
2019-03-31T10:02:45.897Z,28.75
2019-03-31T10:05:14.569Z,28.71
2019-03-31T10:07:43.055Z,28.66
2019-03-31T10:10:17.361Z,28.63
2019-03-31T10:12:45.769Z,28.52
2019-03-31T10:15:14.241Z,28.58
2019-03-31T10:17:42.648Z,28.50
2019-03-31T10:20:11.103Z,28.42
2019-03-31T10:22:39.511Z,28.34
2019-03-31T10:25:08.092Z,28.32
2019-03-31T10:27:36.526Z,28.27
2019-03-31T10:30:06.703Z,28.25
2019-03-31T10:32:35.151Z,28.17
2019-03-31T10:35:04.549Z,28.16
2019-03-31T10:37:32.967Z,28.06
2019-03-31T10:40:01.405Z,28.02
2019-03-31T10:42:29.824Z,27.97
2019-03-31T10:44:58.256Z,27.90
2019-03-31T10:47:26.661Z,27.77
2019-03-31T10:49:55.107Z,27.75
2019-03-31T10:52:23.568Z,27.77
2019-03-31T10:54:51.981Z,27.72
2019-03-31T10:57:20.413Z,27.62
2019-03-31T10:59:48.826Z,27.49
2019-03-31T11:02:17.242Z,27.44
2019-03-31T11:04:45.722Z,27.43
2019-03-31T11:07:14.163Z,27.39
2019-03-31T11:09:42.582Z,27.18
2019-03-31T11:12:11.052Z,27.09
2019-03-31T11:14:39.473Z,27.00
2019-03-31T11:17:07.931Z,27.04
2019-03-31T11:19:36.342Z,27.00
2019-03-31T11:22:06.419Z,26.94
2019-03-31T11:24:34.854Z,26.88
2019-03-31T11:27:03.272Z,26.82
2019-03-31T11:29:31.703Z,26.65
2019-03-31T11:32:00.137Z,26.60
2019-03-31T11:34:28.560Z,26.58
2019-03-31T11:36:57.006Z,26.47
2019-03-31T11:39:25.471Z,26.38
2019-03-31T11:41:53.909Z,26.27
2019-03-31T11:44:22.311Z,26.32
2019-03-31T11:46:50.764Z,26.30
2019-03-31T11:49:19.220Z,26.26
2019-03-31T11:51:47.632Z,26.33
2019-03-31T11:54:16.039Z,26.17
2019-03-31T11:56:44.498Z,26.24
2019-03-31T11:59:13.185Z,26.03
2019-03-31T12:01:41.597Z,26.09
2019-03-31T12:04:10.036Z,25.98
2019-03-31T12:06:38.610Z,25.93
2019-03-31T12:09:07.511Z,26.02
2019-03-31T12:11:35.940Z,25.90
2019-03-31T12:14:04.922Z,26.07
2019-03-31T12:16:33.335Z,25.92
2019-03-31T12:19:01.762Z,26.03
2019-03-31T12:21:30.274Z,25.96
2019-03-31T12:23:58.705Z,26.15
2019-03-31T12:26:27.154Z,26.66
2019-03-31T12:28:55.600Z,27.15
2019-03-31T12:31:24.015Z,27.56
2019-03-31T12:33:52.455Z,27.61
2019-03-31T12:36:21.407Z,27.58
2019-03-31T12:38:49.875Z,27.62
2019-03-31T12:41:18.260Z,27.88
2019-03-31T12:43:46.694Z,27.82
2019-03-31T12:46:15.106Z,27.75
2019-03-31T12:48:44.228Z,27.68
2019-03-31T12:51:12.670Z,27.68
2019-03-31T12:53:41.113Z,27.56
2019-03-31T12:56:09.521Z,27.42
2019-03-31T12:58:37.981Z,27.59
2019-03-31T13:01:06.413Z,27.58
2019-03-31T13:03:34.829Z,27.70
2019-03-31T13:06:03.275Z,27.81
2019-03-31T13:08:31.694Z,27.96
2019-03-31T13:11:00.135Z,27.92
2019-03-31T13:13:28.614Z,28.10
2019-03-31T13:15:57.049Z,28.23
2019-03-31T13:18:27.973Z,28.30
2019-03-31T13:20:55.804Z,28.36
2019-03-31T13:23:24.222Z,28.53
2019-03-31T13:25:52.670Z,28.80
2019-03-31T13:28:21.087Z,29.00
2019-03-31T13:30:49.515Z,29.33
2019-03-31T13:33:17.918Z,29.48
2019-03-31T13:35:46.429Z,29.64
2019-03-31T13:38:14.834Z,29.72
2019-03-31T13:40:43.244Z,29.82
2019-03-31T13:43:11.774Z,29.77
2019-03-31T13:45:40.202Z,29.81
2019-03-31T13:48:08.624Z,29.91
2019-03-31T13:50:37.019Z,29.95
2019-03-31T13:53:05.513Z,30.06
2019-03-31T13:55:33.929Z,30.07
2019-03-31T13:58:03.567Z,30.19
2019-03-31T14:00:40.775Z,30.26
2019-03-31T14:03:09.485Z,30.32
2019-03-31T14:05:37.973Z,30.29
2019-03-31T14:08:06.654Z,30.33
2019-03-31T14:10:35.248Z,30.40
2019-03-31T14:13:04.535Z,30.39
2019-03-31T14:15:32.945Z,30.38
2019-03-31T14:18:01.431Z,30.43
2019-03-31T14:20:29.870Z,30.50
2019-03-31T14:22:58.288Z,30.56
2019-03-31T14:25:26.778Z,30.63
2019-03-31T14:27:55.318Z,30.58
2019-03-31T14:30:23.898Z,30.61
2019-03-31T14:32:52.346Z,30.62
2019-03-31T14:35:20.766Z,30.69
2019-03-31T14:37:49.205Z,30.70
2019-03-31T14:40:17.640Z,30.74
2019-03-31T14:42:46.110Z,30.77
2019-03-31T14:45:17.560Z,30.76
2019-03-31T14:47:46.010Z,30.77
2019-03-31T14:50:17.479Z,30.82
2019-03-31T14:52:45.908Z,30.94
2019-03-31T14:55:14.343Z,30.99
2019-03-31T14:57:42.758Z,31.12
2019-03-31T15:00:15.248Z,31.06
2019-03-31T15:02:41.693Z,30.99
2019-03-31T15:05:10.309Z,30.94
2019-03-31T15:07:38.768Z,30.95
2019-03-31T15:10:07.386Z,31.02
2019-03-31T15:12:35.799Z,31.02
2019-03-31T15:15:05.273Z,30.97
2019-03-31T15:17:33.759Z,30.99
2019-03-31T15:20:02.187Z,30.93
2019-03-31T15:22:30.623Z,30.96
2019-03-31T15:24:59.039Z,31.03
2019-03-31T15:27:27.463Z,31.15
2019-03-31T15:29:55.893Z,31.26
2019-03-31T15:32:24.334Z,31.16
2019-03-31T15:34:52.772Z,31.21
2019-03-31T15:37:21.190Z,31.17
2019-03-31T15:39:49.612Z,31.10
2019-03-31T15:42:18.063Z,31.14
2019-03-31T15:44:46.478Z,31.20
2019-03-31T15:47:14.907Z,31.25
2019-03-31T15:49:43.332Z,31.20
2019-03-31T15:52:11.780Z,31.17
2019-03-31T15:54:40.207Z,31.19
2019-03-31T15:57:08.638Z,31.37
2019-03-31T15:59:37.056Z,31.47
2019-03-31T16:02:05.535Z,31.46
2019-03-31T16:04:33.979Z,31.42
2019-03-31T16:07:02.423Z,31.49
2019-03-31T16:09:30.867Z,31.51
2019-03-31T16:11:59.349Z,31.49
2019-03-31T16:14:27.750Z,31.50
2019-03-31T16:16:56.200Z,31.54
2019-03-31T16:19:24.648Z,31.59
2019-03-31T16:21:53.050Z,31.54
2019-03-31T16:24:23.140Z,31.59
2019-03-31T16:26:53.061Z,31.63
2019-03-31T16:29:21.535Z,31.66
2019-03-31T16:31:49.987Z,31.62
2019-03-31T16:34:18.402Z,31.70
2019-03-31T16:36:46.938Z,31.68
2019-03-31T16:39:15.378Z,31.70
2019-03-31T16:41:43.814Z,31.74
2019-03-31T16:44:12.234Z,31.76
2019-03-31T16:46:40.690Z,31.73
2019-03-31T16:49:09.121Z,31.74
2019-03-31T16:51:37.564Z,31.68
2019-03-31T16:54:06.545Z,31.75
2019-03-31T16:56:35.031Z,31.74
2019-03-31T16:59:03.468Z,31.69
2019-03-31T17:01:31.958Z,31.67
2019-03-31T17:04:00.400Z,31.60
2019-03-31T17:06:28.843Z,31.50
2019-03-31T17:08:57.278Z,31.45
2019-03-31T17:11:25.687Z,31.49
2019-03-31T17:13:54.122Z,31.49
2019-03-31T17:16:22.544Z,31.54
2019-03-31T17:18:50.993Z,31.61
2019-03-31T17:21:19.422Z,31.51
2019-03-31T17:23:47.852Z,31.61
2019-03-31T17:26:16.328Z,31.67
2019-03-31T17:28:44.833Z,31.73
2019-03-31T17:31:13.263Z,31.73
2019-03-31T17:33:41.734Z,31.78
2019-03-31T17:36:10.174Z,31.80
2019-03-31T17:38:38.610Z,31.84
2019-03-31T17:41:07.048Z,31.88
2019-03-31T17:43:35.492Z,31.91
2019-03-31T17:46:04.106Z,31.95
2019-03-31T17:48:32.501Z,32.00
2019-03-31T17:51:00.957Z,32.09
2019-03-31T17:53:29.404Z,32.12
2019-03-31T17:55:57.831Z,32.20
2019-03-31T17:58:26.290Z,32.24
2019-03-31T18:00:54.704Z,32.29
2019-03-31T18:03:23.149Z,32.34
2019-03-31T18:05:51.594Z,32.38
2019-03-31T18:08:20.000Z,32.46
2019-03-31T18:10:48.444Z,32.49
2019-03-31T18:13:16.869Z,32.53
2019-03-31T18:15:45.299Z,32.56
2019-03-31T18:18:13.716Z,32.61
2019-03-31T18:20:42.171Z,32.65
2019-03-31T18:23:10.607Z,32.69
2019-03-31T18:25:39.049Z,32.71
2019-03-31T18:28:07.550Z,32.79
2019-03-31T18:30:35.996Z,32.84
2019-03-31T18:33:04.480Z,32.86
2019-03-31T18:35:32.928Z,32.90
2019-03-31T18:38:01.349Z,32.95
2019-03-31T18:40:35.222Z,32.98
2019-03-31T18:42:59.989Z,33.00
2019-03-31T18:45:28.419Z,33.04
2019-03-31T18:47:56.847Z,33.08
2019-03-31T18:50:25.253Z,33.12
2019-03-31T18:52:53.756Z,33.17
2019-03-31T18:55:23.813Z,33.22
2019-03-31T18:58:10.323Z,33.23
2019-03-31T19:00:43.428Z,33.25
2019-03-31T19:03:13.477Z,33.30
2019-03-31T19:06:00.075Z,33.36
2019-03-31T19:08:42.283Z,33.39
2019-03-31T19:11:14.856Z,33.41
2019-03-31T19:13:55.217Z,33.45
2019-03-31T19:16:37.404Z,33.48
2019-03-31T19:19:13.703Z,33.51
2019-03-31T19:21:53.035Z,33.53
2019-03-31T19:24:26.296Z,33.59
2019-03-31T19:27:08.241Z,33.60
2019-03-31T19:29:53.361Z,33.62
2019-03-31T19:32:23.437Z,33.66
2019-03-31T19:35:02.264Z,33.70
2019-03-31T19:37:35.058Z,33.71
2019-03-31T19:40:14.843Z,33.73
2019-03-31T19:42:59.945Z,33.76
2019-03-31T19:45:38.857Z,33.77
2019-03-31T19:48:08.944Z,33.80
2019-03-31T19:50:57.447Z,33.83
2019-03-31T19:53:45.363Z,33.84
2019-03-31T19:56:21.307Z,33.85
2019-03-31T19:59:06.463Z,33.90
2019-03-31T20:01:42.482Z,33.91
2019-03-31T20:04:30.901Z,33.95
2019-03-31T20:07:03.418Z,33.97
2019-03-31T20:09:39.624Z,33.98
2019-03-31T20:12:18.451Z,34.04
2019-03-31T20:14:54.306Z,34.04
2019-03-31T20:17:36.418Z,34.06
2019-03-31T20:20:10.848Z,34.08
2019-03-31T20:22:44.989Z,34.11
2019-03-31T20:25:21.848Z,34.12
2019-03-31T20:28:01.085Z,34.14
2019-03-31T20:30:37.461Z,34.17
2019-03-31T20:33:22.600Z,34.17
2019-03-31T20:35:55.406Z,34.20
2019-03-31T20:38:34.027Z,34.23
2019-03-31T20:41:09.781Z,34.24
2019-03-31T20:43:42.831Z,34.28
2019-03-31T20:46:11.261Z,34.29
2019-03-31T20:48:39.664Z,34.31
2019-03-31T20:51:08.115Z,34.34
2019-03-31T20:53:36.526Z,34.36
2019-03-31T20:56:05.159Z,34.38
2019-03-31T20:58:33.607Z,34.39
2019-03-31T21:01:02.011Z,34.41
2019-03-31T21:03:30.438Z,34.43
2019-03-31T21:05:59.857Z,34.43
2019-03-31T21:08:28.286Z,34.42
2019-03-31T21:10:56.973Z,34.45
2019-03-31T21:13:25.963Z,34.47
2019-03-31T21:15:54.450Z,34.51
2019-03-31T21:18:22.878Z,34.52
2019-03-31T21:20:51.316Z,34.52
2019-03-31T21:23:19.750Z,34.53
2019-03-31T21:25:48.186Z,34.54
2019-03-31T21:28:16.615Z,34.57
2019-03-31T21:30:45.023Z,34.58
2019-03-31T21:33:13.473Z,34.56
2019-03-31T21:35:41.883Z,34.59
2019-03-31T21:38:10.326Z,34.63
2019-03-31T21:40:38.788Z,34.62
2019-03-31T21:43:07.209Z,34.63
2019-03-31T21:45:35.617Z,34.65
2019-03-31T21:48:04.094Z,34.67
2019-03-31T21:50:32.548Z,34.67
2019-03-31T21:53:00.960Z,34.71
2019-03-31T21:55:29.391Z,34.72
2019-03-31T21:57:57.799Z,34.74
2019-03-31T22:00:28.119Z,34.74
2019-03-31T22:02:56.554Z,34.73
2019-03-31T22:05:24.992Z,34.76
2019-03-31T22:07:53.398Z,34.77
2019-03-31T22:10:21.840Z,34.79
2019-03-31T22:12:50.290Z,34.79
2019-03-31T22:15:18.797Z,34.80
2019-03-31T22:17:47.215Z,34.82
2019-03-31T22:20:15.629Z,34.83
2019-03-31T22:22:44.074Z,34.81
2019-03-31T22:25:12.500Z,34.83
2019-03-31T22:27:40.952Z,34.84
2019-03-31T22:30:09.837Z,34.85
2019-03-31T22:32:38.270Z,34.86
2019-03-31T22:35:06.932Z,34.88
2019-03-31T22:37:35.365Z,34.89
2019-03-31T22:40:05.055Z,34.91
2019-03-31T22:42:33.503Z,34.91
2019-03-31T22:45:01.932Z,34.92
2019-03-31T22:47:30.360Z,34.93
2019-03-31T22:49:58.816Z,34.95
2019-03-31T22:52:27.234Z,34.98
2019-03-31T22:54:55.658Z,34.99
2019-03-31T22:57:24.272Z,35.00
2019-03-31T22:59:52.698Z,34.99
2019-03-31T23:02:21.110Z,35.01
2019-03-31T23:04:49.558Z,35.01
2019-03-31T23:07:17.956Z,35.02
2019-03-31T23:09:46.396Z,35.03
2019-03-31T23:12:14.885Z,35.05
2019-03-31T23:14:43.320Z,35.06
2019-03-31T23:17:11.832Z,35.04
2019-03-31T23:19:40.282Z,35.05
2019-03-31T23:22:08.730Z,35.05
2019-03-31T23:24:37.154Z,35.08
2019-03-31T23:27:05.565Z,35.08
2019-03-31T23:29:34.012Z,35.11
2019-03-31T23:32:02.454Z,35.13
2019-03-31T23:34:30.846Z,35.16
2019-03-31T23:36:59.306Z,35.18
2019-03-31T23:39:27.720Z,35.19
2019-03-31T23:41:56.158Z,35.20
2019-03-31T23:44:24.582Z,35.22
2019-03-31T23:46:53.020Z,35.23
2019-03-31T23:49:21.437Z,35.22
2019-03-31T23:51:49.944Z,35.23
2019-03-31T23:54:18.379Z,35.27
2019-03-31T23:56:46.808Z,35.28
2019-03-31T23:59:15.258Z,35.29
